createdAt,value
2018-06-25T00:00:53.877Z,100611.78
2018-06-25T00:03:26.315Z,100609.22
2018-06-25T00:05:55.776Z,100611.06
2018-06-25T00:08:26.107Z,100611.02
2018-06-25T00:10:56.373Z,100611.12
2018-06-25T00:13:28.133Z,100608.62
2018-06-25T00:15:57.614Z,100610.46
2018-06-25T00:18:27.070Z,100609.06
2018-06-25T00:20:57.288Z,100610.21
2018-06-25T00:23:28.301Z,100615.50
2018-06-25T00:25:57.778Z,100614.30
2018-06-25T00:28:30.157Z,100615.09
2018-06-25T00:31:00.397Z,100617.19
2018-06-25T00:33:31.382Z,100613.55
2018-06-25T00:36:01.600Z,100615.84
2018-06-25T00:38:31.808Z,100615.38
2018-06-25T00:41:04.266Z,100622.91
2018-06-25T00:43:33.745Z,100629.00
2018-06-25T00:46:03.321Z,100625.07
2018-06-25T00:48:33.543Z,100618.06
2018-06-25T00:51:05.318Z,100622.63
2018-06-25T00:53:37.727Z,100620.59
2018-06-25T00:56:07.162Z,100618.62
2018-06-25T00:59:46.524Z,100619.61
2018-06-25T01:02:18.936Z,100617.06
2018-06-25T01:04:48.427Z,100613.47
2018-06-25T01:07:20.825Z,100606.64
2018-06-25T01:09:50.261Z,100599.16
2018-06-25T01:12:22.719Z,100603.98
2018-06-25T01:14:52.156Z,100606.84
2018-06-25T01:17:22.394Z,100620.05
2018-06-25T01:19:53.409Z,100617.45
2018-06-25T01:22:22.882Z,100612.23
2018-06-25T01:24:52.304Z,100621.94
2018-06-25T01:27:22.525Z,100619.50
2018-06-25T01:29:54.328Z,100626.70
2018-06-25T01:32:24.636Z,100627.00
2018-06-25T01:34:54.100Z,100632.58
2018-06-25T01:37:23.531Z,100623.37
2018-06-25T01:39:52.995Z,100616.89
2018-06-25T01:42:22.452Z,100622.64
2018-06-25T01:44:54.841Z,100613.28
2018-06-25T01:47:24.301Z,100621.08
2018-06-25T01:49:53.745Z,100621.25
2018-06-25T01:52:23.195Z,100621.00
2018-06-25T01:54:52.657Z,100613.58
2018-06-25T01:57:23.645Z,100612.19
2018-06-25T01:59:56.053Z,100610.68
2018-06-25T02:02:25.485Z,100605.15
2018-06-25T02:04:55.784Z,100617.64
2018-06-25T02:07:25.205Z,100618.67
2018-06-25T02:09:57.616Z,100621.20
2018-06-25T02:12:29.973Z,100624.25
2018-06-25T02:14:59.474Z,100623.29
2018-06-25T02:17:31.861Z,100626.27
2018-06-25T02:20:01.371Z,100623.05
2018-06-25T02:22:30.820Z,100620.60
2018-06-25T02:25:00.244Z,100619.34
2018-06-25T02:27:32.680Z,100627.41
2018-06-25T02:30:02.116Z,100627.44
2018-06-25T02:32:33.897Z,100618.62
2018-06-25T02:35:04.192Z,100625.48
2018-06-25T02:37:36.095Z,100630.00
2018-06-25T02:40:07.085Z,100628.76
2018-06-25T02:42:38.078Z,100625.70
2018-06-25T02:45:10.475Z,100624.33
2018-06-25T02:47:39.945Z,100626.09
2018-06-25T02:50:10.144Z,100623.16
2018-06-25T02:52:39.632Z,100628.58
2018-06-25T02:55:10.629Z,100632.47
2018-06-25T02:57:40.125Z,100627.73
2018-06-25T03:00:11.071Z,100626.16
2018-06-25T03:02:41.268Z,100626.88
2018-06-25T03:05:10.745Z,100635.78
2018-06-25T03:07:43.128Z,100633.73
2018-06-25T03:10:12.618Z,100632.25
2018-06-25T03:12:45.011Z,100628.11
2018-06-25T03:15:15.274Z,100638.03
2018-06-25T03:17:47.037Z,100642.03
2018-06-25T03:20:19.492Z,100641.58
2018-06-25T03:22:49.052Z,100643.70
2018-06-25T03:25:18.475Z,100641.06
2018-06-25T03:27:47.909Z,100639.86
2018-06-25T03:30:18.909Z,100636.16
2018-06-25T03:32:49.123Z,100639.98
2018-06-25T03:35:19.341Z,100644.45
2018-06-25T03:37:50.035Z,100650.13
2018-06-25T03:40:21.209Z,100651.83
2018-06-25T03:42:52.245Z,100652.89
2018-06-25T03:45:22.448Z,100650.12
2018-06-25T03:47:51.909Z,100645.56
2018-06-25T03:50:22.192Z,100645.75
2018-06-25T03:52:51.697Z,100648.92
2018-06-25T03:55:24.377Z,100649.32
2018-06-25T03:57:54.021Z,100647.07
2018-06-25T04:00:24.781Z,100650.30
2018-06-25T04:02:57.221Z,100644.48
2018-06-25T04:05:28.270Z,100649.58
2018-06-25T04:07:58.492Z,100648.73
2018-06-25T04:10:28.001Z,100652.95
2018-06-25T04:12:59.168Z,100658.38
2018-06-25T04:15:28.621Z,100658.09
2018-06-25T04:17:58.881Z,100666.23
2018-06-25T04:20:30.672Z,100665.98
2018-06-25T04:23:00.900Z,100665.05
2018-06-25T04:25:32.727Z,100667.61
2018-06-25T04:28:02.178Z,100671.31
2018-06-25T04:30:35.195Z,100665.39
2018-06-25T04:33:06.936Z,100671.23
2018-06-25T04:35:39.314Z,100667.02
2018-06-25T04:38:11.728Z,100670.83
2018-06-25T04:40:41.172Z,100673.18
2018-06-25T04:43:12.181Z,100677.84
2018-06-25T04:45:43.136Z,100678.97
2018-06-25T04:48:14.176Z,100681.11
2018-06-25T04:50:46.577Z,100679.45
2018-06-25T04:53:18.960Z,100676.14
2018-06-25T04:55:50.732Z,100680.54
2018-06-25T04:58:21.744Z,100683.75
2018-06-25T05:00:51.970Z,100683.23
2018-06-25T05:03:24.347Z,100687.92
2018-06-25T05:05:56.142Z,100693.42
2018-06-25T05:08:25.620Z,100691.52
2018-06-25T05:10:55.801Z,100698.90
2018-06-25T05:13:25.252Z,100702.23
2018-06-25T05:15:57.637Z,100699.94
2018-06-25T05:18:27.117Z,100704.23
2018-06-25T05:20:58.887Z,100703.23
2018-06-25T05:23:29.163Z,100709.20
2018-06-25T05:26:00.897Z,100711.77
2018-06-25T05:28:31.192Z,100714.18
2018-06-25T05:31:02.308Z,100717.86
2018-06-25T05:33:34.768Z,100712.94
2018-06-25T05:36:04.195Z,100715.88
2018-06-25T05:38:35.973Z,100717.83
2018-06-25T05:41:05.427Z,100722.77
2018-06-25T05:43:34.872Z,100720.12
2018-06-25T05:46:04.353Z,100721.23
2018-06-25T05:48:33.837Z,100717.61
2018-06-25T05:51:03.599Z,100717.41
2018-06-25T05:53:33.833Z,100715.23
2018-06-25T05:56:03.272Z,100718.77
2018-06-25T05:58:32.729Z,100721.08
2018-06-25T06:01:02.169Z,100723.70
2018-06-25T06:03:31.636Z,100731.27
2018-06-25T06:06:01.093Z,100731.95
2018-06-25T06:08:30.536Z,100731.95
2018-06-25T06:10:59.960Z,100742.17
2018-06-25T06:13:32.384Z,100739.59
2018-06-25T06:16:02.634Z,100745.55
2018-06-25T06:18:34.392Z,100743.23
2018-06-25T06:21:04.692Z,100746.16
2018-06-25T06:23:37.045Z,100748.82
2018-06-25T06:26:08.845Z,100752.37
2018-06-25T06:28:38.773Z,100754.08
2018-06-25T06:31:09.768Z,100754.69
2018-06-25T06:33:40.772Z,100757.69
2018-06-25T06:36:11.750Z,100758.27
2018-06-25T06:38:41.207Z,100763.79
2018-06-25T06:41:11.458Z,100764.77
2018-06-25T06:43:40.973Z,100764.75
2018-06-25T06:46:10.422Z,100764.40
2018-06-25T06:48:41.425Z,100773.04
2018-06-25T06:51:11.616Z,100768.70
2018-06-25T06:53:41.132Z,100776.52
2018-06-25T06:56:11.956Z,100777.02
2018-06-25T06:58:41.452Z,100784.88
2018-06-25T07:01:12.422Z,100781.59
2018-06-25T07:03:42.648Z,100781.12
2018-06-25T07:06:12.085Z,100779.11
2018-06-25T07:08:41.596Z,100784.34
2018-06-25T07:11:11.020Z,100782.77
2018-06-25T07:13:40.480Z,100784.62
2018-06-25T07:16:09.993Z,100782.81
2018-06-25T07:18:39.434Z,100783.88
2018-06-25T07:21:11.229Z,100785.55
2018-06-25T07:23:40.665Z,100784.64
2018-06-25T07:26:11.020Z,100785.83
2018-06-25T07:28:41.231Z,100792.55
2018-06-25T07:31:12.308Z,100785.32
2018-06-25T07:33:43.272Z,100785.86
2018-06-25T07:36:13.510Z,100786.39
2018-06-25T07:38:42.929Z,100782.63
2018-06-25T07:41:14.764Z,100785.08
2018-06-25T07:43:45.238Z,100781.42
2018-06-25T07:46:15.493Z,100782.45
2018-06-25T07:48:45.026Z,100786.39
2018-06-25T07:51:15.274Z,100787.25
2018-06-25T07:53:47.084Z,100789.99
2018-06-25T07:56:16.539Z,100792.06
2018-06-25T07:58:46.869Z,100796.00
2018-06-25T08:01:16.332Z,100795.05
2018-06-25T08:03:45.830Z,100799.25
2018-06-25T08:06:15.193Z,100801.86
2018-06-25T08:08:44.643Z,100801.20
2018-06-25T08:11:14.230Z,100806.30
2018-06-25T08:13:44.656Z,100801.05
2018-06-25T08:16:14.146Z,100805.32
2018-06-25T08:18:43.544Z,100804.62
2018-06-25T08:21:12.969Z,100795.28
2018-06-25T08:23:42.452Z,100808.81
2018-06-25T08:26:11.867Z,100804.76
2018-06-25T08:28:44.342Z,100808.61
2018-06-25T08:31:13.784Z,100815.95
2018-06-25T08:33:43.335Z,100809.43
2018-06-25T08:36:12.654Z,100811.38
2018-06-25T08:38:42.130Z,100808.50
2018-06-25T08:41:12.415Z,100824.39
2018-06-25T08:43:44.145Z,100826.23
2018-06-25T08:46:13.684Z,100825.43
2018-06-25T08:48:43.921Z,100821.99
2018-06-25T08:51:13.364Z,100825.45
2018-06-25T08:53:42.863Z,100824.23
2018-06-25T08:56:12.304Z,100828.36
2018-06-25T08:58:44.740Z,100834.27
2018-06-25T09:01:14.200Z,100830.66
2018-06-25T09:03:46.571Z,100827.92
2018-06-25T09:06:16.098Z,100829.80
2018-06-25T09:08:47.098Z,100832.54
2018-06-25T09:11:18.149Z,100828.89
2018-06-25T09:13:47.590Z,100824.55
2018-06-25T09:16:17.100Z,100828.27
2018-06-25T09:18:46.544Z,100824.59
2018-06-25T09:21:16.001Z,100827.53
2018-06-25T09:23:47.006Z,100827.63
2018-06-25T09:26:17.959Z,100830.34
2018-06-25T09:28:48.484Z,100828.14
2018-06-25T09:31:18.790Z,100827.27
2018-06-25T09:33:48.277Z,100830.20
2018-06-25T09:36:17.702Z,100830.58
2018-06-25T09:38:47.153Z,100834.09
2018-06-25T09:41:16.696Z,100827.53
2018-06-25T09:43:47.583Z,100833.66
2018-06-25T09:46:18.597Z,100836.83
2018-06-25T09:48:48.020Z,100841.36
2018-06-25T09:51:17.474Z,100842.56
2018-06-25T09:53:46.886Z,100844.63
2018-06-25T09:56:19.379Z,100842.03
2018-06-25T09:58:48.816Z,100835.97
2018-06-25T10:01:18.253Z,100839.42
2018-06-25T10:03:47.882Z,100837.63
2018-06-25T10:06:17.316Z,100836.42
2018-06-25T10:08:47.529Z,100835.56
2018-06-25T10:11:19.910Z,100840.61
2018-06-25T10:13:49.349Z,100840.44
2018-06-25T10:16:21.139Z,100833.92
2018-06-25T10:18:50.584Z,100837.22
2018-06-25T10:21:21.641Z,100835.20
2018-06-25T10:23:51.020Z,100836.98
2018-06-25T10:26:21.220Z,100834.39
2018-06-25T10:28:50.705Z,100834.06
2018-06-25T10:31:20.939Z,100837.55
2018-06-25T10:33:50.388Z,100842.28
2018-06-25T10:36:19.795Z,100839.63
2018-06-25T10:38:49.307Z,100840.66
2018-06-25T10:41:18.783Z,100839.53
2018-06-25T10:43:48.274Z,100843.36
2018-06-25T10:46:20.674Z,100848.15
2018-06-25T10:48:50.911Z,100848.02
2018-06-25T10:51:21.083Z,100852.66
2018-06-25T10:53:50.592Z,100845.68
2018-06-25T10:56:20.812Z,100851.93
2018-06-25T10:58:50.280Z,100851.49
2018-06-25T11:01:20.514Z,100851.81
2018-06-25T11:03:49.962Z,100854.48
2018-06-25T11:06:20.200Z,100856.36
2018-06-25T11:08:49.657Z,100852.95
2018-06-25T11:11:20.643Z,100847.34
2018-06-25T11:13:50.128Z,100844.05
2018-06-25T11:16:20.288Z,100841.69
2018-06-25T11:18:49.969Z,100844.44
2018-06-25T11:21:20.268Z,100838.03
2018-06-25T11:23:49.723Z,100840.87
2018-06-25T11:26:19.902Z,100837.83
2018-06-25T11:28:50.152Z,100840.37
2018-06-25T11:31:20.409Z,100838.41
2018-06-25T11:33:52.931Z,100840.87
2018-06-25T11:36:23.161Z,100841.76
2018-06-25T11:38:55.612Z,100848.05
2018-06-25T11:41:25.070Z,100846.91
2018-06-25T11:43:55.269Z,100847.42
2018-06-25T11:46:25.523Z,100848.52
2018-06-25T11:48:57.279Z,100844.20
2018-06-25T11:51:29.704Z,100849.31
2018-06-25T11:53:59.129Z,100850.66
2018-06-25T11:56:31.532Z,100848.83
2018-06-25T11:59:02.012Z,100843.91
2018-06-25T12:01:33.020Z,100844.61
2018-06-25T12:04:02.500Z,100849.00
2018-06-25T12:06:34.287Z,100851.36
2018-06-25T12:09:05.045Z,100843.18
2018-06-25T12:11:34.500Z,100843.78
2018-06-25T12:14:06.988Z,100840.72
2018-06-25T12:16:37.984Z,100838.88
2018-06-25T12:19:09.058Z,100836.73
2018-06-25T12:21:41.446Z,100836.89
2018-06-25T12:24:12.440Z,100839.25
2018-06-25T12:26:44.212Z,100838.26
2018-06-25T12:29:13.674Z,100835.96
2018-06-25T12:31:43.100Z,100840.87
2018-06-25T12:34:13.336Z,100832.70
2018-06-25T12:36:45.765Z,100838.81
2018-06-25T12:39:18.187Z,100829.81
2018-06-25T12:41:48.391Z,100833.91
2018-06-25T12:44:19.269Z,100836.45
2018-06-25T12:46:51.685Z,100840.80
2018-06-25T12:49:21.918Z,100834.69
2018-06-25T12:51:54.292Z,100832.77
2018-06-25T12:54:23.779Z,100834.47
2018-06-25T12:56:55.557Z,100835.80
2018-06-25T12:59:27.933Z,100833.31
2018-06-25T13:02:00.377Z,100839.59
2018-06-25T13:04:32.784Z,100837.64
2018-06-25T13:07:02.259Z,100842.55
2018-06-25T13:09:34.678Z,100837.00
2018-06-25T13:12:06.445Z,100837.02
2018-06-25T13:14:39.304Z,100832.99
2018-06-25T13:17:11.081Z,100828.58
2018-06-25T13:19:43.473Z,100836.20
2018-06-25T13:22:12.969Z,100827.69
2018-06-25T13:24:45.565Z,100827.96
2018-06-25T13:27:15.037Z,100825.05
2018-06-25T13:29:47.557Z,100821.66
2018-06-25T13:32:17.013Z,100828.03
2018-06-25T13:34:47.245Z,100820.64
2018-06-25T13:37:16.786Z,100824.59
2018-06-25T13:39:47.144Z,100821.94
2018-06-25T13:42:18.841Z,100819.76
2018-06-25T13:44:48.317Z,100818.55
2018-06-25T13:47:20.716Z,100821.74
2018-06-25T13:49:50.206Z,100816.05
2018-06-25T13:52:21.960Z,100814.00
2018-06-25T13:54:52.244Z,100813.63
2018-06-25T13:57:23.982Z,100811.20
2018-06-25T13:59:54.310Z,100807.96
2018-06-25T14:02:24.565Z,100805.02
2018-06-25T14:04:56.315Z,100814.53
2018-06-25T14:07:25.777Z,100807.27
2018-06-25T14:09:56.040Z,100801.02
2018-06-25T14:12:25.545Z,100801.54
2018-06-25T14:14:55.079Z,100785.61
2018-06-25T14:17:25.322Z,100788.12
2018-06-25T14:19:57.808Z,100796.15
2018-06-25T14:22:27.257Z,100787.45
2018-06-25T14:24:59.036Z,100783.30
2018-06-25T14:28:29.670Z,100786.92
2018-06-25T14:31:21.176Z,100789.10
2018-06-25T14:34:20.888Z,100783.44
2018-06-25T14:36:51.122Z,100795.09
2018-06-25T14:39:20.602Z,100793.89
2018-06-25T14:41:50.872Z,100788.16
2018-06-25T14:44:20.319Z,100788.45
2018-06-25T14:46:52.751Z,100788.06
2018-06-25T14:49:22.235Z,100799.87
2018-06-25T14:51:54.687Z,100783.26
2018-06-25T14:54:28.115Z,100783.03
2018-06-25T14:56:58.958Z,100786.80
2018-06-25T14:59:29.339Z,100782.78
2018-06-25T15:02:00.557Z,100790.45
2018-06-25T15:04:30.021Z,100778.88
2018-06-25T15:06:59.486Z,100780.30
2018-06-25T15:09:31.894Z,100773.55
2018-06-25T15:12:02.215Z,100784.28
2018-06-25T15:14:32.446Z,100782.09
2018-06-25T15:17:03.445Z,100779.86
2018-06-25T15:19:33.755Z,100769.37
2018-06-25T15:22:06.978Z,100782.83
2018-06-25T15:24:37.444Z,100769.81
2018-06-25T15:27:09.922Z,100770.17
2018-06-25T15:29:42.406Z,100768.92
2018-06-25T15:32:12.667Z,100771.08
2018-06-25T15:34:45.075Z,100769.23
2018-06-25T15:37:14.574Z,100764.74
2018-06-25T15:39:45.580Z,100756.98
2018-06-25T15:42:15.054Z,100767.62
2018-06-25T15:44:45.314Z,100766.13
2018-06-25T15:47:14.759Z,100772.77
2018-06-25T15:49:45.770Z,100769.63
2018-06-25T15:52:15.974Z,100764.88
2018-06-25T15:54:49.288Z,100762.80
2018-06-25T15:57:21.653Z,100764.31
2018-06-25T15:59:53.504Z,100758.87
2018-06-25T16:02:22.909Z,100759.10
2018-06-25T16:04:52.357Z,100756.33
2018-06-25T16:07:22.592Z,100754.49
2018-06-25T16:09:55.050Z,100760.41
2018-06-25T16:12:34.580Z,100754.57
2018-06-25T16:15:04.044Z,100752.89
2018-06-25T16:17:33.526Z,100748.44
2018-06-25T16:20:04.634Z,100746.36
2018-06-25T16:22:34.042Z,100751.36
2018-06-25T16:25:06.439Z,100742.66
2018-06-25T16:27:35.856Z,100745.17
2018-06-25T16:30:07.004Z,100742.28
2018-06-25T16:32:36.508Z,100742.39
2018-06-25T16:35:08.977Z,100736.14
2018-06-25T16:37:38.417Z,100731.95
2018-06-25T16:40:08.717Z,100742.86
2018-06-25T16:42:38.148Z,100739.57
2018-06-25T16:45:07.621Z,100735.75
2018-06-25T16:47:37.089Z,100739.13
2018-06-25T16:52:36.037Z,100736.73
2018-06-25T16:55:08.448Z,100739.41
2018-06-25T16:57:37.954Z,100743.91
2018-06-25T17:00:07.728Z,100740.52
2018-06-25T17:02:37.180Z,100743.68
2018-06-25T17:05:09.621Z,100740.03
2018-06-25T17:07:39.091Z,100744.98
2018-06-25T17:10:11.493Z,100739.47
2018-06-25T17:12:43.903Z,100737.97
2018-06-25T17:15:13.321Z,100737.52
2018-06-25T17:17:45.752Z,100731.84
2018-06-25T17:20:15.257Z,100725.23
2018-06-25T17:22:45.528Z,100724.63
2018-06-25T17:25:15.753Z,100727.23
2018-06-25T17:27:45.964Z,100723.66
2018-06-25T17:30:15.490Z,100728.53
2018-06-25T17:32:45.711Z,100727.47
2018-06-25T17:35:15.141Z,100724.23
2018-06-25T17:37:46.134Z,100727.52
2018-06-25T17:40:15.570Z,100722.60
2018-06-25T17:42:45.821Z,100723.62
2018-06-25T17:45:15.268Z,100725.48
2018-06-25T17:47:45.503Z,100718.55
2018-06-25T17:50:18.499Z,100727.79
2018-06-25T17:52:50.291Z,100724.16
2018-06-25T17:55:20.541Z,100716.78
2018-06-25T17:57:51.525Z,100719.41
2018-06-25T18:00:21.757Z,100718.73
2018-06-25T18:02:51.313Z,100721.24
2018-06-25T18:05:22.304Z,100717.53
2018-06-25T18:07:54.718Z,100715.20
2018-06-25T18:10:24.181Z,100717.81
2018-06-25T18:12:56.621Z,100716.61
2018-06-25T18:15:26.846Z,100722.47
2018-06-25T18:17:57.866Z,100727.89
2018-06-25T18:20:27.340Z,100729.50
2018-06-25T18:22:56.768Z,100730.83
2018-06-25T18:25:29.271Z,100732.52
2018-06-25T18:27:59.473Z,100736.04
2018-06-25T18:30:31.851Z,100736.56
2018-06-25T18:33:01.397Z,100733.34
2018-06-25T18:35:33.865Z,100738.53
2018-06-25T18:38:06.323Z,100736.91
2018-06-25T18:40:35.765Z,100732.40
2018-06-25T18:43:05.553Z,100733.62
2018-06-25T18:45:35.055Z,62475.17
2018-06-25T18:48:05.365Z,62475.17
2018-06-25T18:50:34.814Z,62475.17
2018-06-25T18:53:04.292Z,62475.17
2018-06-25T18:55:35.290Z,62475.17
2018-06-25T18:58:08.144Z,62475.17
2018-06-25T19:00:37.748Z,62475.17
2018-06-25T19:03:10.333Z,62475.17
2018-06-25T19:05:39.861Z,62475.17
2018-06-25T19:08:10.845Z,62475.17
2018-06-25T19:10:43.312Z,62475.17
2018-06-25T19:13:13.553Z,62475.17
2018-06-25T19:15:43.786Z,62475.17
2018-06-25T19:18:13.301Z,62475.17
2018-06-25T19:20:45.729Z,62475.17
2018-06-25T19:23:18.144Z,62475.17
2018-06-25T19:25:48.384Z,62475.17
2018-06-25T19:28:18.634Z,62475.17
2018-06-25T19:30:48.904Z,62475.17
2018-06-25T19:33:21.297Z,62475.17
2018-06-25T19:35:53.691Z,62475.17
2018-06-25T19:38:23.181Z,62475.17
2018-06-25T19:41:06.976Z,100757.68
2018-06-25T19:43:36.433Z,100755.22
2018-06-25T19:46:06.790Z,100760.53
2018-06-25T19:48:38.555Z,100762.22
2018-06-25T19:51:08.896Z,100768.14
2018-06-25T19:53:41.335Z,100771.53
2018-06-25T19:56:10.841Z,100770.38
2018-06-25T19:58:40.305Z,100772.73
2018-06-25T20:01:09.783Z,100776.92
2018-06-25T20:03:39.300Z,100777.44
2018-06-25T20:06:08.815Z,100784.84
2018-06-25T20:08:38.346Z,100789.44
2018-06-25T20:11:08.780Z,100789.93
2018-06-25T20:13:38.221Z,100788.41
2018-06-25T20:16:10.761Z,100788.52
2018-06-25T20:18:40.247Z,100791.91
2018-06-25T20:21:10.492Z,100793.75
2018-06-25T20:23:39.932Z,100794.95
2018-06-25T20:26:12.562Z,100796.12
2018-06-25T20:28:42.685Z,100795.58
2018-06-25T20:31:12.173Z,100799.48
2018-06-25T20:33:41.643Z,100800.96
2018-06-25T20:36:11.298Z,100796.18
2018-06-25T20:38:40.869Z,100808.41
2018-06-25T20:41:11.118Z,100814.48
2018-06-25T20:43:40.593Z,100817.00
2018-06-25T20:46:10.045Z,100821.55
2018-06-25T20:48:39.520Z,100817.17
2018-06-25T20:51:11.428Z,100820.86
2018-06-25T20:53:43.257Z,100817.42
2018-06-25T20:56:13.476Z,100820.37
2018-06-25T20:58:45.336Z,100819.78
2018-06-25T21:01:14.807Z,100818.15
2018-06-25T21:03:44.250Z,100821.27
2018-06-25T21:06:16.216Z,100820.52
2018-06-25T21:08:45.665Z,100820.48
2018-06-25T21:11:15.171Z,100823.37
2018-06-25T21:13:47.655Z,100819.38
2018-06-25T21:16:17.148Z,100821.81
2018-06-25T21:18:47.396Z,100815.00
2018-06-25T21:21:16.930Z,100817.54
2018-06-25T21:23:47.160Z,100815.42
2018-06-25T21:26:19.607Z,100817.06
2018-06-25T21:28:49.057Z,100818.80
2018-06-25T21:31:19.264Z,100821.41
2018-06-25T21:33:48.702Z,100821.66
2018-06-25T21:36:18.241Z,100823.16
2018-06-25T21:38:50.839Z,100824.41
2018-06-25T21:41:21.024Z,100829.44
2018-06-25T21:43:51.250Z,100827.44
2018-06-25T21:46:23.761Z,100825.11
2018-06-25T21:48:56.245Z,100822.44
2018-06-25T21:51:28.840Z,100821.25
2018-06-25T21:53:59.798Z,100819.10
2018-06-25T21:56:30.011Z,100815.16
2018-06-25T21:58:59.464Z,100808.34
2018-06-25T22:01:31.832Z,100812.25
2018-06-25T22:04:04.244Z,100811.48
2018-06-25T22:06:36.036Z,100812.36
2018-06-25T22:09:05.771Z,100812.12
2018-06-25T22:11:45.524Z,100815.65
2018-06-25T22:14:14.977Z,100818.05
2018-06-25T22:16:45.800Z,100813.20
2018-06-25T22:19:16.237Z,100807.46
2018-06-25T22:21:45.986Z,100805.57
2018-06-25T22:24:15.723Z,100809.08
2018-06-25T22:26:47.510Z,100813.53
2018-06-25T22:29:19.948Z,100810.44
2018-06-25T22:31:50.337Z,100812.98
2018-06-25T22:34:20.877Z,100816.28
2018-06-25T22:36:50.696Z,100809.65
2018-06-25T22:39:23.094Z,100817.52
2018-06-25T22:41:53.434Z,100811.23
2018-06-25T22:44:23.437Z,100811.15
2018-06-25T22:46:54.252Z,100808.09
2018-06-25T22:49:24.747Z,100810.43
2018-06-25T22:51:54.280Z,100813.92
2018-06-25T22:54:23.816Z,100820.23
2018-06-25T22:56:53.365Z,100821.27
2018-06-25T22:59:22.930Z,100815.73
2018-06-25T23:01:52.441Z,100817.99
2018-06-25T23:04:23.534Z,100820.52
2018-06-25T23:07:15.203Z,100824.11
2018-06-25T23:09:44.716Z,100827.16
2018-06-25T23:12:14.232Z,100824.06
2018-06-25T23:14:43.815Z,100822.05
2018-06-25T23:17:14.381Z,100820.94
2018-06-25T23:19:46.291Z,100820.78
2018-06-25T23:22:16.365Z,100820.53
2018-06-25T23:24:45.971Z,100818.26
2018-06-25T23:27:15.545Z,100826.25
2018-06-25T23:29:45.121Z,100820.91
2018-06-25T23:32:14.696Z,100816.39
2018-06-25T23:34:44.561Z,100811.34
2018-06-25T23:37:14.190Z,100813.45
2018-06-25T23:39:43.692Z,100820.55
2018-06-25T23:42:13.507Z,100812.91
2018-06-25T23:44:43.211Z,100809.66
2018-06-25T23:47:13.598Z,100811.08
2018-06-25T23:49:43.934Z,100813.63
2018-06-25T23:52:13.830Z,100817.79
2018-06-25T23:54:43.336Z,100815.17
2018-06-25T23:57:13.791Z,100819.20
2018-06-25T23:59:43.296Z,100824.34
